Time;durP1;ratioP1;P1;durP2;ratioP2;P2;SDS_P1;SDS_P2;PMS_P1;PMS_P2;Temp;Humidity;BMP_temperature;BMP_pressure;BME280_temperature;BME280_humidity;BME280_pressure;Samples;Min_cycle;Max_cycle;Signal;HPM_P1;HPM_P2
2021/06/08 00:00:00;;;;;;;5.70;5.12;;;;;;;16.20;90.46;99351.23;1719096;82;20967;-51
2021/06/08 00:02:27;;;;;;;7.28;4.80;;;;;;;16.17;91.11;99351.97;1724224;80;20891;-52
2021/06/08 00:09:08;;;;;;;7.00;5.35;;;;;;;16.15;91.76;99349.88;1785898;79;22830;-51
2021/06/08 00:11:35;;;;;;;6.55;5.67;;;;;;;16.09;92.22;99359.39;1694003;81;21030;-51
2021/06/08 00:14:02;;;;;;;6.70;5.60;;;;;;;16.06;93.00;99354.18;1713862;83;21106;-52
2021/06/08 00:16:29;;;;;;;9.03;5.83;;;;;;;16.03;93.37;99354.41;1709197;82;20927;-52
2021/06/08 00:18:56;;;;;;;7.28;5.83;;;;;;;16.03;93.28;99358.49;1691887;83;20935;-55
2021/06/08 00:21:23;;;;;;;6.87;6.17;;;;;;;16.03;93.40;99358.49;1711036;82;20944;-53
2021/06/08 00:23:50;;;;;;;9.73;5.47;;;;;;;16.04;93.41;99358.03;1702942;83;21003;-52
2021/06/08 00:26:16;;;;;;;6.12;5.40;;;;;;;16.04;93.57;99361.61;1692228;83;21890;-52
2021/06/08 00:28:43;;;;;;;8.45;6.08;;;;;;;16.05;93.75;99357.89;1691704;83;20990;-52
2021/06/08 00:31:10;;;;;;;8.58;6.25;;;;;;;16.06;93.77;99356.91;1692453;83;21393;-51
2021/06/08 00:33:37;;;;;;;10.50;6.03;;;;;;;16.07;93.76;99355.91;1692138;83;20950;-51
2021/06/08 00:36:04;;;;;;;5.95;5.35;;;;;;;16.08;93.87;99345.89;1692394;82;20988;-53
2021/06/08 00:38:31;;;;;;;9.98;5.80;;;;;;;16.08;94.19;99348.11;1691787;83;21117;-55
2021/06/08 00:41:01;;;;;;;6.65;5.60;;;;;;;16.07;94.08;99343.67;1691824;83;20941;-55
2021/06/08 00:43:27;;;;;;;12.82;7.00;;;;;;;16.08;94.10;99354.91;1708754;81;20935;-56
2021/06/08 00:45:55;;;;;;;9.40;6.22;;;;;;;16.08;94.35;99348.11;1703083;82;20970;-53
2021/06/08 00:48:21;;;;;;;6.83;5.72;;;;;;;16.09;94.30;99337.63;1694396;82;21556;-52
2021/06/08 00:50:48;;;;;;;9.53;6.15;;;;;;;16.10;94.29;99341.21;1715520;82;21099;-51
2021/06/08 00:53:15;;;;;;;6.80;5.85;;;;;;;16.11;94.23;99338.36;1691396;83;20970;-52
2021/06/08 00:55:42;;;;;;;11.45;6.42;;;;;;;16.11;94.30;99339.72;1707405;82;20923;-52
2021/06/08 00:58:09;;;;;;;10.03;6.53;;;;;;;16.10;94.39;99348.88;1691543;83;20982;-52
2021/06/08 01:00:36;;;;;;;7.75;6.85;;;;;;;16.09;94.52;99344.44;1691439;83;20966;-51
2021/06/08 01:03:04;;;;;;;7.37;6.67;;;;;;;16.09;94.50;99344.93;1691422;83;21806;-52
2021/06/08 01:05:31;;;;;;;7.58;6.62;;;;;;;16.08;94.67;99348.61;1691551;83;20999;-51
2021/06/08 01:07:58;;;;;;;7.53;6.72;;;;;;;16.05;94.89;99349.73;1704285;83;20906;-51
2021/06/08 01:10:24;;;;;;;9.95;6.42;;;;;;;16.02;95.10;99358.13;1692895;82;20987;-51
2021/06/08 01:12:51;;;;;;;6.62;6.00;;;;;;;16.00;95.45;99351.95;1694846;82;20907;-52
2021/06/08 01:15:20;;;;;;;7.08;6.28;;;;;;;15.97;95.40;99353.05;1692167;83;21112;-51
2021/06/08 01:17:47;;;;;;;7.25;5.85;;;;;;;15.96;95.51;99351.81;1695049;83;20955;-53
2021/06/08 01:20:15;;;;;;;7.90;6.55;;;;;;;15.95;95.71;99356.39;1691906;83;20990;-53
2021/06/08 01:22:42;;;;;;;11.63;7.28;;;;;;;15.91;95.93;99357.61;1689835;83;21487;-54
2021/06/08 01:25:10;;;;;;;7.55;6.83;;;;;;;15.88;96.23;99361.09;1667313;83;21018;-52
2021/06/08 01:27:37;;;;;;;9.00;7.15;;;;;;;15.84;96.40;99359.59;1692065;83;21448;-52
2021/06/08 01:30:05;;;;;;;9.28;6.55;;;;;;;15.79;96.65;99361.80;1692046;83;20975;-52
2021/06/08 01:32:32;;;;;;;8.55;6.90;;;;;;;15.74;97.08;99358.56;1697605;83;21479;-53
2021/06/08 01:34:59;;;;;;;8.13;6.33;;;;;;;15.73;97.23;99362.28;1692507;83;20943;-54
2021/06/08 01:37:26;;;;;;;7.85;6.95;;;;;;;15.69;97.39;99365.22;1691675;83;21026;-53
2021/06/08 01:39:53;;;;;;;9.70;7.15;;;;;;;15.68;97.60;99370.29;1702122;82;21089;-53
2021/06/08 01:42:20;;;;;;;8.20;6.87;;;;;;;15.64;97.85;99371.51;1692069;83;20959;-53
2021/06/08 01:44:46;;;;;;;8.78;7.17;;;;;;;15.62;98.01;99367.16;1692638;83;21942;-53
2021/06/08 01:47:13;;;;;;;8.85;7.53;;;;;;;15.59;98.08;99370.96;1692058;83;20984;-52
2021/06/08 01:49:40;;;;;;;8.13;6.50;;;;;;;15.54;98.39;99366.37;1697193;83;21047;-53
2021/06/08 01:52:18;;;;;;;7.65;6.83;;;;;;;15.52;98.51;99365.63;1691861;83;21396;-56
2021/06/08 01:55:11;;;;;;;9.08;7.75;;;;;;;15.51;98.72;99373.42;1699391;83;20931;-50
2021/06/08 01:57:42;;;;;;;9.05;7.83;;;;;;;15.46;99.04;99366.11;1691813;83;21042;-51
2021/06/08 02:00:14;;;;;;;;;;;;;;;15.44;99.42;99372.13;1698467;83;20983;-51
2021/06/08 02:02:49;;;;;;;11.03;7.78;;;;;;;15.42;99.62;99370.90;1708066;83;20118;-49
2021/06/08 02:05:47;;;;;;;9.53;7.78;;;;;;;15.39;99.83;99367.54;1691476;83;21144;-50
2021/06/08 02:09:02;;;;;;;10.13;7.90;;;;;;;15.40;100.00;99372.02;1703481;83;21452;-51
2021/06/08 02:11:52;;;;;;;9.58;7.67;;;;;;;15.50;100.00;99374.41;1709067;82;20971;-50
2021/06/08 02:14:41;;;;;;;9.33;7.58;;;;;;;15.63;100.00;99368.42;1695573;83;20939;-51
2021/06/08 02:17:19;;;;;;;8.73;7.33;;;;;;;15.79;99.63;99369.95;1691784;83;21512;-50
2021/06/08 02:19:48;;;;;;;9.65;7.55;;;;;;;15.95;98.91;99373.20;1691616;83;21121;-54
2021/06/08 02:22:15;;;;;;;9.08;7.92;;;;;;;16.12;98.11;99375.45;1692267;81;20943;-56
2021/06/08 02:24:44;;;;;;;9.70;7.30;;;;;;;16.27;96.95;99375.23;1691971;83;20911;-56
2021/06/08 02:27:11;;;;;;;8.38;7.50;;;;;;;16.40;96.19;99368.66;1707097;81;20959;-50
2021/06/08 02:29:38;;;;;;;9.10;7.70;;;;;;;16.55;95.23;99369.79;1695813;83;21014;-50
2021/06/08 02:32:07;;;;;;;9.78;7.33;;;;;;;16.66;94.44;99371.14;1703526;83;21138;-53
2021/06/08 02:34:34;;;;;;;9.25;7.33;;;;;;;16.84;93.83;99372.91;1691575;83;21026;-52
2021/06/08 02:37:01;;;;;;;8.50;7.67;;;;;;;17.01;92.25;99377.82;1691425;83;21018;-62
2021/06/08 02:39:28;;;;;;;8.78;7.40;;;;;;;17.07;91.54;99384.12;1665881;83;21471;-63
2021/06/08 02:41:56;;;;;;;8.68;7.30;;;;;;;17.18;90.73;99386.81;1709924;83;20942;-62
2021/06/08 02:44:23;;;;;;;7.62;6.92;;;;;;;17.28;89.90;99385.05;1701357;83;21194;-63
2021/06/08 02:46:50;;;;;;;7.75;6.95;;;;;;;17.35;89.12;99385.90;1706340;83;21875;-63
2021/06/08 02:49:19;;;;;;;9.13;7.30;;;;;;;17.40;88.99;99388.60;1692212;82;20999;-63
2021/06/08 02:51:45;;;;;;;11.68;8.18;;;;;;;17.50;88.25;99395.02;1694804;83;21156;-65
2021/06/08 02:54:15;;;;;;;9.63;7.80;;;;;;;17.36;87.95;99399.89;1691403;83;20955;-61
2021/06/08 02:56:42;;;;;;;11.45;7.35;;;;;;;17.18;88.51;99392.27;1680119;83;21357;-62
2021/06/08 02:59:09;;;;;;;12.82;7.75;;;;;;;17.07;89.05;99400.47;1705764;83;21068;-62
2021/06/08 03:01:40;;;;;;;8.55;7.15;;;;;;;17.03;89.38;99401.70;1698918;82;20919;-62
2021/06/08 03:04:07;;;;;;;8.63;7.80;;;;;;;17.10;89.47;99400.23;1682057;83;21527;-62
2021/06/08 03:06:37;;;;;;;9.98;7.70;;;;;;;17.03;89.49;99395.76;1699647;82;21567;-60
2021/06/08 03:09:07;;;;;;;7.97;7.17;;;;;;;16.93;89.74;99396.64;1664149;83;21779;-62
2021/06/08 03:11:51;;;;;;;11.93;7.72;;;;;;;16.82;90.30;99400.75;1704190;82;21124;-51
2021/06/08 03:14:19;;;;;;;9.38;8.20;;;;;;;16.77;91.02;99402.48;1692301;83;20911;-54
2021/06/08 03:16:53;;;;;;;8.70;7.80;;;;;;;16.86;91.10;99406.32;1688362;83;20927;-53
2021/06/08 03:19:22;;;;;;;8.15;7.35;;;;;;;17.01;90.91;99396.39;1707448;83;21434;-62
2021/06/08 03:21:51;;;;;;;9.38;7.40;;;;;;;17.31;89.95;99396.68;1660864;83;21662;-63
2021/06/08 03:24:19;;;;;;;11.55;7.97;;;;;;;17.54;88.86;99401.08;1693467;83;20947;-61
2021/06/08 03:26:46;;;;;;;14.03;7.62;;;;;;;17.74;88.01;99401.66;1696507;83;20995;-62
2021/06/08 03:29:14;;;;;;;10.25;7.42;;;;;;;18.07;86.97;99397.01;1688284;83;21475;-62
2021/06/08 03:31:44;;;;;;;7.97;7.17;;;;;;;18.41;84.97;99404.96;1688713;83;21508;-62
2021/06/08 03:34:15;;;;;;;8.58;7.75;;;;;;;18.58;83.80;99405.69;1671146;83;21317;-63
2021/06/08 03:36:40;;;;;;;8.85;7.25;;;;;;;18.80;82.78;99408.29;1688899;83;21922;-63
2021/06/08 03:39:07;;;;;;;11.22;7.12;;;;;;;18.99;81.54;99412.94;1688483;83;20923;-63
2021/06/08 03:41:33;;;;;;;8.15;6.92;;;;;;;19.24;81.07;99403.38;1688605;82;20944;-62
2021/06/08 03:44:00;;;;;;;9.03;7.00;;;;;;;19.60;79.56;99402.35;1702452;83;21475;-57
2021/06/08 03:46:27;;;;;;;7.75;6.47;;;;;;;19.84;78.22;99404.17;1689131;83;21467;-57
2021/06/08 03:48:56;;;;;;;10.40;7.12;;;;;;;20.00;76.61;99406.32;1696205;83;20990;-58
2021/06/08 03:51:29;;;;;;;14.33;7.05;;;;;;;20.07;75.76;99412.07;1697717;82;21646;-58
2021/06/08 03:53:56;;;;;;;7.75;6.95;;;;;;;20.14;74.96;99407.76;1682293;83;21516;-55
2021/06/08 03:56:23;;;;;;;9.65;6.85;;;;;;;20.18;74.69;99424.23;1698708;82;20943;-59
2021/06/08 03:58:50;;;;;;;9.63;6.83;;;;;;;20.19;74.03;99427.35;1695651;83;21096;-58
2021/06/08 04:01:17;;;;;;;7.50;6.70;;;;;;;20.36;74.17;99423.85;1693034;82;20937;-57
2021/06/08 04:03:44;;;;;;;9.30;6.72;;;;;;;20.65;73.17;99417.45;1695298;82;21613;-59
2021/06/08 04:06:11;;;;;;;7.62;5.90;;;;;;;20.92;72.25;99424.33;1701229;82;21049;-58
2021/06/08 04:08:37;;;;;;;7.78;6.97;;;;;;;21.14;70.94;99422.20;1662428;82;20935;-56
2021/06/08 04:11:04;;;;;;;8.60;6.28;;;;;;;21.17;69.66;99419.17;1691257;82;21104;-57
2021/06/08 04:13:31;;;;;;;9.38;6.10;;;;;;;21.11;69.82;99423.91;1697094;82;20987;-57
2021/06/08 04:15:58;;;;;;;7.75;6.28;;;;;;;21.11;69.91;99417.05;1693067;83;20955;-57
2021/06/08 04:18:25;;;;;;;8.25;6.22;;;;;;;21.27;70.22;99421.35;1697028;82;20987;-56
2021/06/08 04:20:53;;;;;;;8.48;6.22;;;;;;;21.55;69.00;99426.32;1691458;82;20996;-57
2021/06/08 04:23:26;;;;;;;9.08;6.50;;;;;;;21.72;67.64;99434.21;1696051;82;21103;-56
2021/06/08 04:25:53;;;;;;;7.08;6.12;;;;;;;21.65;67.72;99438.61;1692424;82;20931;-58
2021/06/08 04:28:21;;;;;;;6.97;6.15;;;;;;;21.66;67.72;99432.09;1691161;82;20919;-56
2021/06/08 04:30:48;;;;;;;8.88;6.33;;;;;;;21.85;66.75;99431.09;1693083;82;20990;-55
2021/06/08 04:33:21;;;;;;;8.70;6.10;;;;;;;21.82;66.40;99429.51;1692301;83;21552;-56
2021/06/08 04:35:48;;;;;;;11.45;6.00;;;;;;;21.73;66.35;99433.19;1692072;82;21163;-56
2021/06/08 04:38:16;;;;;;;9.05;6.28;;;;;;;21.74;66.58;99426.70;1696446;82;20995;-57
2021/06/08 04:40:43;;;;;;;9.50;5.72;;;;;;;21.95;66.26;99428.63;1696215;82;21488;-55
2021/06/08 04:43:10;;;;;;;8.75;6.42;;;;;;;22.18;65.35;99433.65;1695668;83;20960;-56
2021/06/08 04:45:38;;;;;;;7.97;7.10;;;;;;;21.97;65.04;99432.06;1695506;83;21035;-55
2021/06/08 04:48:06;;;;;;;9.18;7.28;;;;;;;21.53;66.03;99430.25;1693599;82;21096;-57
2021/06/08 04:50:32;;;;;;;8.85;7.15;;;;;;;21.18;67.33;99431.35;1689592;83;21472;-57
2021/06/08 04:53:03;;;;;;;8.25;6.87;;;;;;;20.91;67.96;99437.69;1690375;82;21002;-56
2021/06/08 04:55:30;;;;;;;8.95;7.95;;;;;;;20.66;69.08;99435.10;1693665;83;20943;-57
2021/06/08 04:57:58;;;;;;;9.43;7.28;;;;;;;20.38;70.16;99436.88;1693454;82;21015;-56
2021/06/08 05:00:42;;;;;;;8.03;7.22;;;;;;;20.11;71.69;99439.52;1662256;83;21070;-55
2021/06/08 05:03:15;;;;;;;8.85;7.90;;;;;;;19.79;72.55;99439.31;1633376;85;21548;-55
2021/06/08 05:05:45;;;;;;;9.58;7.35;;;;;;;19.52;73.77;99439.12;1655137;83;21002;-54
2021/06/08 05:08:20;;;;;;;9.33;7.22;;;;;;;19.49;74.57;99436.65;1669592;83;21564;-56
2021/06/08 05:11:01;;;;;;;8.55;7.53;;;;;;;19.37;74.96;99435.91;1687726;83;21004;-56
2021/06/08 05:13:28;;;;;;;11.68;8.43;;;;;;;19.22;75.49;99435.95;1700590;83;21884;-54
2021/06/08 05:15:55;;;;;;;9.30;7.58;;;;;;;19.22;76.02;99437.31;1636627;83;20999;-53
2021/06/08 05:18:22;;;;;;;9.75;8.75;;;;;;;19.24;76.30;99443.53;1692843;83;20966;-55
2021/06/08 05:20:49;;;;;;;11.10;8.05;;;;;;;19.21;76.61;99447.39;1665073;83;21062;-55
2021/06/08 05:23:16;;;;;;;9.85;8.10;;;;;;;19.22;76.81;99438.17;1661901;83;20975;-55
2021/06/08 05:25:44;;;;;;;13.00;7.35;;;;;;;19.18;76.90;99441.36;1691476;82;21844;-55
2021/06/08 05:28:13;;;;;;;9.50;7.08;;;;;;;19.16;77.43;99434.64;1689683;83;21297;-55
2021/06/08 05:30:40;;;;;;;9.80;7.80;;;;;;;19.18;77.79;99440.85;1663666;83;21143;-58
2021/06/08 05:33:11;;;;;;;10.95;8.68;;;;;;;19.16;77.70;99426.44;1695903;82;21002;-57
2021/06/08 05:35:38;;;;;;;12.53;9.60;;;;;;;19.18;77.89;99432.65;1668120;83;21091;-56
2021/06/08 05:38:07;;;;;;;9.73;7.83;;;;;;;19.28;77.99;99426.70;1689901;82;21449;-56
2021/06/08 05:40:39;;;;;;;8.43;7.62;;;;;;;19.55;77.37;99426.54;1688615;83;21555;-58
2021/06/08 05:43:06;;;;;;;8.15;7.33;;;;;;;19.90;76.61;99430.09;1695147;82;20963;-56
2021/06/08 05:45:34;;;;;;;9.25;7.20;;;;;;;20.32;74.87;99433.37;1691342;82;21533;-57
2021/06/08 05:48:01;;;;;;;8.25;5.97;;;;;;;20.71;73.71;99436.54;1692558;82;21408;-56
2021/06/08 05:50:28;;;;;;;7.78;5.83;;;;;;;21.12;71.54;99444.81;1699956;82;21085;-55
2021/06/08 05:52:55;;;;;;;8.38;6.17;;;;;;;21.48;69.63;99438.09;1693748;82;21048;-56
2021/06/08 05:55:24;;;;;;;8.10;5.45;;;;;;;21.96;67.39;99448.19;1707218;82;20951;-56
2021/06/08 05:57:54;;;;;;;7.58;5.15;;;;;;;22.34;65.65;99450.27;1699195;83;20991;-58
2021/06/08 06:00:21;;;;;;;5.28;4.78;;;;;;;22.61;64.11;99449.77;1690388;83;20979;-56
2021/06/08 06:02:49;;;;;;;9.00;4.92;;;;;;;22.77;63.30;99451.25;1691212;82;21076;-56
2021/06/08 06:05:16;;;;;;;5.05;4.20;;;;;;;22.97;62.10;99444.53;1691407;82;21019;-54
2021/06/08 06:07:43;;;;;;;6.47;5.28;;;;;;;23.10;61.01;99444.58;1691679;82;20947;-52
2021/06/08 06:10:12;;;;;;;8.20;5.15;;;;;;;23.36;60.19;99435.74;1657008;83;21003;-54
2021/06/08 06:12:40;;;;;;;5.47;4.97;;;;;;;23.67;60.05;99442.06;1707431;83;20943;-53
2021/06/08 06:15:09;;;;;;;5.45;4.90;;;;;;;24.09;58.77;99443.86;1693275;82;22196;-54
2021/06/08 06:17:37;;;;;;;4.85;4.25;;;;;;;24.37;58.51;99436.98;1704931;82;20955;-55
2021/06/08 06:20:07;;;;;;;7.28;5.95;;;;;;;24.64;57.05;99440.41;1690880;82;20999;-54
2021/06/08 06:22:35;;;;;;;4.25;3.85;;;;;;;24.61;56.25;99435.22;1689206;83;20951;-54
2021/06/08 06:25:08;;;;;;;5.55;3.52;;;;;;;24.36;55.31;99439.92;1688627;82;20939;-54
2021/06/08 06:27:38;;;;;;;4.00;3.55;;;;;;;24.23;55.60;99441.25;1695843;83;21114;-54
2021/06/08 06:30:06;;;;;;;4.15;3.75;;;;;;;24.41;54.64;99432.86;1694423;82;20935;-54
2021/06/08 06:32:33;;;;;;;3.60;3.30;;;;;;;24.30;53.29;99438.69;1670859;83;21012;-53
2021/06/08 06:35:02;;;;;;;4.80;2.85;;;;;;;24.43;52.92;99433.53;1691383;82;21440;-51
2021/06/08 06:37:29;;;;;;;3.98;2.62;;;;;;;24.64;51.52;99437.64;1689509;83;21070;-50
2021/06/08 06:39:57;;;;;;;2.65;2.35;;;;;;;24.41;52.24;99429.23;1692571;82;20947;-50
2021/06/08 06:42:32;;;;;;;5.03;2.92;;;;;;;24.36;51.90;99438.55;1672740;83;21426;-52
2021/06/08 06:45:02;;;;;;;3.05;2.75;;;;;;;24.26;52.81;99429.04;1690914;82;20935;-53
2021/06/08 06:47:28;;;;;;;7.17;4.15;;;;;;;24.36;52.65;99435.27;1691282;83;21523;-53
2021/06/08 06:49:55;;;;;;;3.60;2.80;;;;;;;24.43;52.89;99433.53;1693199;82;21548;-50
2021/06/08 06:52:22;;;;;;;3.83;2.92;;;;;;;24.70;52.26;99436.94;1690105;83;21108;-50
2021/06/08 06:54:49;;;;;;;6.90;2.35;;;;;;;24.79;51.45;99427.09;1691579;82;20924;-50
2021/06/08 06:57:16;;;;;;;6.35;3.25;;;;;;;24.68;51.38;99430.75;1691307;83;21519;-52
2021/06/08 06:59:43;;;;;;;3.58;2.80;;;;;;;24.60;52.50;99439.88;1694031;82;20975;-52
2021/06/08 07:02:11;;;;;;;3.30;2.92;;;;;;;24.58;52.21;99436.97;1640384;83;21007;-51
2021/06/08 07:04:38;;;;;;;3.45;3.15;;;;;;;24.36;52.27;99429.76;1689877;82;21113;-52
2021/06/08 07:07:06;;;;;;;7.58;2.83;;;;;;;24.18;53.52;99421.65;1665852;83;21033;-51
2021/06/08 07:09:33;;;;;;;3.02;2.77;;;;;;;24.16;53.48;99425.59;1690908;82;21614;-51
2021/06/08 07:12:00;;;;;;;4.20;3.05;;;;;;;24.05;53.32;99427.66;1695943;83;21019;-52
2021/06/08 07:14:27;;;;;;;3.77;3.12;;;;;;;23.69;53.63;99428.98;1693353;82;21322;-52
2021/06/08 07:16:54;;;;;;;6.28;3.62;;;;;;;23.17;55.17;99434.63;1694815;82;21069;-51
2021/06/08 07:19:25;;;;;;;5.53;3.42;;;;;;;22.87;56.21;99447.02;1694474;82;21693;-51
2021/06/08 07:21:52;;;;;;;5.53;3.72;;;;;;;22.76;57.02;99445.41;1694871;82;21122;-51
2021/06/08 07:24:21;;;;;;;7.53;3.70;;;;;;;22.44;57.80;99449.66;1694613;81;21518;-51
2021/06/08 07:26:48;;;;;;;4.67;4.20;;;;;;;22.24;58.78;99439.88;1693977;83;21381;-50
2021/06/08 07:29:15;;;;;;;8.83;3.90;;;;;;;21.97;60.19;99431.20;1699818;81;21099;-51
2021/06/08 07:31:47;;;;;;;5.33;4.10;;;;;;;21.72;60.71;99436.95;1693207;82;21679;-52
2021/06/08 07:34:27;;;;;;;4.35;3.65;;;;;;;21.41;61.62;99434.59;1702259;83;20987;-51
2021/06/08 07:36:59;;;;;;;5.12;4.45;;;;;;;21.25;61.92;99427.98;1700727;83;21085;-51
2021/06/08 07:39:41;;;;;;;7.25;3.92;;;;;;;21.16;62.69;99428.42;1662819;82;20951;-50
2021/06/08 07:42:17;;;;;;;4.50;4.10;;;;;;;21.17;62.79;99417.80;1697330;83;21385;-54
2021/06/08 07:44:59;;;;;;;4.37;3.98;;;;;;;21.18;63.27;99430.48;1693771;81;21059;-51
2021/06/08 07:47:27;;;;;;;6.08;4.42;;;;;;;21.10;62.39;99430.41;1698997;83;20935;-51
2021/06/08 07:49:55;;;;;;;4.75;4.35;;;;;;;21.07;62.70;99421.09;1693866;81;21166;-52
2021/06/08 07:52:23;;;;;;;4.10;3.70;;;;;;;21.12;62.75;99428.36;1698687;82;20967;-52
2021/06/08 07:54:51;;;;;;;7.62;4.00;;;;;;;21.14;62.16;99431.80;1694304;80;21060;-53
2021/06/08 07:57:19;;;;;;;4.53;4.12;;;;;;;21.11;62.59;99429.38;1692231;83;20994;-52
2021/06/08 07:59:46;;;;;;;5.33;4.50;;;;;;;21.09;62.21;99425.91;1695126;82;21063;-51
2021/06/08 08:02:12;;;;;;;4.70;4.20;;;;;;;21.13;62.49;99432.83;1690923;83;21495;-51
2021/06/08 08:04:49;;;;;;;4.62;3.83;;;;;;;21.14;62.81;99431.80;1695264;82;21069;-51
2021/06/08 08:07:13;;;;;;;7.40;4.50;;;;;;;21.17;62.59;99421.41;1691391;83;21120;-54
2021/06/08 08:09:40;;;;;;;3.87;3.47;;;;;;;21.27;62.76;99413.13;1689707;83;21031;-53
2021/06/08 08:12:08;;;;;;;4.37;3.98;;;;;;;21.34;62.23;99436.20;1658398;84;21045;-55
2021/06/08 08:14:35;;;;;;;4.45;4.05;;;;;;;21.34;62.22;99432.60;1678680;84;21741;-50
2021/06/08 08:17:02;;;;;;;6.78;4.00;;;;;;;21.32;61.97;99429.16;1682019;82;21043;-50
2021/06/08 08:19:29;;;;;;;4.15;3.52;;;;;;;21.34;62.19;99426.60;1679031;84;21080;-51
2021/06/08 08:21:55;;;;;;;4.55;3.60;;;;;;;21.40;62.59;99427.35;1685018;82;21036;-53
2021/06/08 08:24:22;;;;;;;4.60;4.20;;;;;;;21.49;62.54;99430.20;1683400;84;20959;-50
2021/06/08 08:26:49;;;;;;;8.55;3.65;;;;;;;21.53;62.55;99424.25;1684345;82;20987;-52
2021/06/08 08:29:16;;;;;;;4.85;4.00;;;;;;;21.60;62.72;99421.75;1680209;82;21575;-50
2021/06/08 08:31:43;;;;;;;4.12;3.33;;;;;;;21.68;62.64;99431.45;1679678;82;21142;-53
2021/06/08 08:34:10;;;;;;;4.90;3.12;;;;;;;21.75;62.40;99424.30;1669196;84;22262;-53
2021/06/08 08:36:38;;;;;;;3.85;3.55;;;;;;;21.84;62.19;99426.12;1684589;83;21015;-53
2021/06/08 08:39:08;;;;;;;6.28;3.45;;;;;;;21.83;60.45;99420.25;1684835;84;21007;-54
2021/06/08 08:41:35;;;;;;;3.83;3.15;;;;;;;21.79;60.68;99429.84;1679692;82;21051;-54
2021/06/08 08:44:03;;;;;;;3.62;3.27;;;;;;;21.75;60.02;99417.44;1681069;82;21451;-54
2021/06/08 08:46:30;;;;;;;4.03;3.20;;;;;;;21.74;60.28;99423.09;1679360;82;20980;-53
2021/06/08 08:48:56;;;;;;;3.17;2.85;;;;;;;21.76;60.46;99419.16;1679029;84;21485;-53
2021/06/08 08:51:25;;;;;;;3.52;2.98;;;;;;;21.83;60.07;99421.63;1680033;82;21034;-54
2021/06/08 08:53:53;;;;;;;6.08;2.80;;;;;;;21.88;59.13;99420.64;1681661;82;21931;-54
2021/06/08 08:56:32;;;;;;;3.98;3.12;;;;;;;21.95;59.14;99423.64;1683864;82;21604;-53
2021/06/08 08:59:17;;;;;;;5.95;2.35;;;;;;;22.04;58.76;99421.81;1680323;82;20931;-55
2021/06/08 09:01:46;;;;;;;3.55;2.60;;;;;;;22.15;57.32;99410.61;1682873;82;21029;-52
2021/06/08 09:04:13;;;;;;;3.10;2.80;;;;;;;22.25;57.28;99420.99;1679338;84;20920;-53
2021/06/08 09:06:40;;;;;;;2.75;2.35;;;;;;;22.36;57.18;99424.84;1684578;82;21019;-54
2021/06/08 09:09:09;;;;;;;4.60;2.60;;;;;;;22.49;56.86;99415.69;1679179;84;21271;-54
2021/06/08 09:11:38;;;;;;;3.22;2.42;;;;;;;22.57;56.27;99415.38;1691707;82;21305;-53
2021/06/08 09:14:05;;;;;;;3.45;2.60;;;;;;;22.59;56.24;99403.73;1679188;82;20963;-53
2021/06/08 09:16:32;;;;;;;2.80;2.60;;;;;;;22.69;55.96;99408.57;1695101;82;20932;-53
2021/06/08 09:19:07;;;;;;;5.58;3.15;;;;;;;22.72;55.66;99406.87;1680133;82;21003;-55
2021/06/08 09:21:37;;;;;;;4.12;3.33;;;;;;;22.75;55.64;99410.70;1679768;82;21744;-53
2021/06/08 09:24:20;;;;;;;3.25;2.60;;;;;;;22.74;54.77;99411.69;1682521;82;21417;-54
2021/06/08 09:26:58;;;;;;;3.95;3.02;;;;;;;22.72;54.96;99427.50;1679174;82;21019;-54
2021/06/08 09:29:37;;;;;;;2.98;2.42;;;;;;;22.67;55.05;99418.88;1620141;85;21056;-53
2021/06/08 09:32:25;;;;;;;3.70;3.10;;;;;;;22.64;54.41;99405.48;1648744;84;21548;-54
2021/06/08 09:35:00;;;;;;;3.90;2.85;;;;;;;22.64;55.42;99413.73;1678614;84;21129;-54
2021/06/08 09:37:33;;;;;;;3.65;2.65;;;;;;;22.62;54.59;99404.24;1688211;82;20971;-54
2021/06/08 09:40:00;;;;;;;5.87;3.25;;;;;;;22.56;54.17;99389.78;1686888;83;20928;-51
2021/06/08 09:42:30;;;;;;;3.27;2.80;;;;;;;22.47;54.90;99398.98;1687776;82;20948;-60
2021/06/08 09:45:18;;;;;;;3.67;2.83;;;;;;;22.48;54.68;99389.23;1678481;82;21093;-57
2021/06/08 09:47:45;;;;;;;8.20;3.08;;;;;;;22.56;54.42;99381.53;1677994;84;21111;-50
2021/06/08 09:50:35;;;;;;;3.77;3.00;;;;;;;22.67;54.46;99380.39;1638279;84;21750;-53
2021/06/08 09:53:21;;;;;;;4.85;3.00;;;;;;;22.74;54.75;99372.72;1620894;85;21589;-52
2021/06/08 09:55:53;;;;;;;3.55;2.27;;;;;;;22.85;54.15;99376.17;1592342;85;21007;-51
2021/06/08 09:58:23;;;;;;;3.30;2.50;;;;;;;22.85;53.04;99383.94;1625230;85;20955;-53
2021/06/08 10:01:23;;;;;;;3.62;2.83;;;;;;;22.83;52.63;99380.47;1626039;86;21152;-52
2021/06/08 10:03:55;;;;;;;3.10;2.55;;;;;;;22.81;52.71;99374.29;1626601;86;21490;-52
2021/06/08 10:06:27;;;;;;;3.47;2.77;;;;;;;22.81;52.86;99367.41;1634850;85;21069;-53
2021/06/08 10:09:00;;;;;;;3.40;2.60;;;;;;;22.81;51.34;99368.78;1625712;86;20987;-52
2021/06/08 10:11:30;;;;;;;2.95;2.20;;;;;;;22.85;51.44;99383.94;1630289;86;21065;-51
2021/06/08 10:14:19;;;;;;;4.33;2.80;;;;;;;22.86;50.22;99391.16;1630488;86;21085;-52
2021/06/08 10:17:00;;;;;;;7.78;2.65;;;;;;;22.88;50.61;99402.88;1657221;84;21381;-52
2021/06/08 10:19:27;;;;;;;4.53;2.90;;;;;;;22.84;51.26;99378.06;1691703;82;21389;-52
2021/06/08 10:21:54;;;;;;;7.25;3.08;;;;;;;22.78;51.44;99381.48;1693697;82;20994;-52
2021/06/08 10:24:29;;;;;;;4.80;2.40;;;;;;;22.75;51.90;99373.58;1695902;82;21079;-51
2021/06/08 10:26:57;;;;;;;6.83;3.12;;;;;;;22.75;51.26;99353.81;1697239;82;21086;-53
2021/06/08 10:29:26;;;;;;;3.17;2.37;;;;;;;22.78;52.23;99345.73;1655364;83;20974;-54
2021/06/08 10:31:54;;;;;;;3.22;2.33;;;;;;;22.83;52.62;99359.84;1692778;82;20939;-54
2021/06/08 10:34:21;;;;;;;4.40;2.85;;;;;;;22.88;51.53;99339.63;1696516;83;21038;-52
2021/06/08 10:36:48;;;;;;;5.20;3.35;;;;;;;22.86;52.37;99332.03;1688201;82;21022;-53
2021/06/08 10:39:17;;;;;;;5.33;2.85;;;;;;;22.95;52.46;99328.81;1689116;82;21113;-55
2021/06/08 10:41:45;;;;;;;5.42;2.70;;;;;;;23.03;51.73;99333.50;1689072;82;21058;-53
2021/06/08 10:44:19;;;;;;;4.05;2.83;;;;;;;23.04;51.95;99336.59;1697494;83;20999;-54
2021/06/08 10:46:50;;;;;;;4.47;2.70;;;;;;;23.03;51.72;99339.00;1693765;82;20962;-51
2021/06/08 10:49:20;;;;;;;3.52;2.83;;;;;;;23.00;52.56;99320.92;1696746;82;21489;-51
2021/06/08 10:52:10;;;;;;;8.23;2.75;;;;;;;23.13;52.34;99328.72;1667644;83;21082;-51
2021/06/08 10:54:46;;;;;;;3.40;2.70;;;;;;;23.27;51.25;99328.04;1693540;83;21030;-51
2021/06/08 10:57:14;;;;;;;2.90;2.60;;;;;;;23.39;50.88;99342.36;1689855;82;20943;-51
2021/06/08 10:59:49;;;;;;;2.45;2.25;;;;;;;23.38;49.89;99327.72;1698787;83;21587;-52
2021/06/08 11:02:46;;;;;;;5.47;2.55;;;;;;;23.30;49.69;99311.20;1689775;82;21035;-51
2021/06/08 11:05:15;;;;;;;5.58;2.72;;;;;;;23.22;50.16;99322.18;1693735;83;21728;-50
2021/06/08 11:07:50;;;;;;;3.15;2.20;;;;;;;23.19;49.62;99320.64;1695282;82;21043;-51
2021/06/08 11:10:43;;;;;;;2.85;2.40;;;;;;;23.25;49.58;99327.36;1694601;83;20931;-50
2021/06/08 11:13:20;;;;;;;2.70;2.50;;;;;;;23.36;48.96;99327.55;1690944;83;21623;-51
2021/06/08 11:15:52;;;;;;;4.58;3.27;;;;;;;23.41;49.80;99349.41;1691775;83;20967;-50
2021/06/08 11:18:38;;;;;;;5.77;3.37;;;;;;;23.39;49.80;99341.84;1692417;82;21282;-50
2021/06/08 11:21:12;;;;;;;8.45;2.77;;;;;;;23.37;50.51;99359.02;1693135;82;21513;-52
2021/06/08 11:23:43;;;;;;;3.92;2.65;;;;;;;23.40;50.59;99328.43;1692024;83;20941;-51
2021/06/08 11:26:15;;;;;;;3.75;3.27;;;;;;;23.41;50.97;99331.52;1696922;83;20947;-52
2021/06/08 11:28:49;;;;;;;4.30;2.80;;;;;;;23.42;51.54;99323.59;1694145;81;20928;-51
2021/06/08 11:31:19;;;;;;;3.25;2.72;;;;;;;23.37;51.59;99342.52;1696342;82;21031;-51
2021/06/08 11:33:48;;;;;;;3.37;3.08;;;;;;;23.38;52.27;99325.48;1693748;81;20971;-52
2021/06/08 11:36:25;;;;;;;3.98;2.42;;;;;;;23.38;52.61;99314.47;1702548;82;20935;-51
2021/06/08 11:38:56;;;;;;;2.90;2.70;;;;;;;23.36;48.08;99312.42;1695123;81;21460;-51
2021/06/08 11:41:23;;;;;;;4.40;3.20;;;;;;;23.39;50.82;99317.59;1693534;82;20904;-52
2021/06/08 11:43:54;;;;;;;3.15;2.65;;;;;;;23.44;50.53;99305.05;1692743;81;21657;-50
2021/06/08 11:46:31;;;;;;;4.67;3.37;;;;;;;23.51;50.44;99339.10;1692273;82;20986;-51
2021/06/08 11:49:09;;;;;;;3.27;2.70;;;;;;;23.56;49.72;99312.97;1703339;81;20931;-51
2021/06/08 11:51:39;;;;;;;3.30;2.62;;;;;;;23.59;49.87;99311.23;1696039;82;20947;-52